Time;durP1;ratioP1;P1;durP2;ratioP2;P2;SDS_P1;SDS_P2;PMS_P1;PMS_P2;Temp;Humidity;BMP_temperature;BMP_pressure;BME280_temperature;BME280_humidity;BME280_pressure;Samples;Min_cycle;Max_cycle;Signal;HPM_P1;HPM_P2
2021/07/27 00:01:12;;;;;;;7.62;4.95;;;;;;;18.22;100.00;101126.43;1747375;81;21032;-90
2021/07/27 00:03:40;;;;;;;8.98;6.22;;;;;;;18.18;100.00;101124.06;1731080;82;21103;-90
2021/07/27 00:06:07;;;;;;;6.97;5.22;;;;;;;18.14;100.00;101116.13;1724865;81;21039;-88
2021/07/27 00:08:36;;;;;;;9.58;5.87;;;;;;;18.10;100.00;101115.11;1733827;81;21479;-88
2021/07/27 00:11:09;;;;;;;13.88;5.85;;;;;;;18.05;100.00;101123.80;1741870;81;21131;-88
2021/07/27 00:13:36;;;;;;;10.78;6.65;;;;;;;18.00;100.00;101112.87;1736670;82;21113;-89
2021/07/27 00:16:05;;;;;;;7.72;5.60;;;;;;;17.95;100.00;101108.84;1711866;82;21096;-90
2021/07/27 00:18:32;;;;;;;7.72;5.72;;;;;;;17.93;100.00;101107.53;1739074;82;21144;-88
2021/07/27 00:21:04;;;;;;;9.23;5.45;;;;;;;17.90;100.00;101107.55;1723087;82;21238;-90
2021/07/27 00:23:34;;;;;;;6.60;4.05;;;;;;;17.88;100.00;101112.61;1717233;82;21092;-89
2021/07/27 00:26:05;;;;;;;6.50;5.45;;;;;;;17.79;100.00;101110.30;1736574;82;21120;-88
2021/07/27 00:28:31;;;;;;;7.03;5.53;;;;;;;17.67;100.00;101116.36;1711158;83;21060;-89
2021/07/27 00:31:00;;;;;;;7.15;5.10;;;;;;;17.62;100.00;101121.43;1719182;82;21426;-89
2021/07/27 00:33:32;;;;;;;8.48;5.70;;;;;;;17.59;100.00;101108.81;1736526;82;21498;-89
2021/07/27 00:36:01;;;;;;;7.40;5.47;;;;;;;17.57;100.00;101104.16;1762033;81;21234;-89
2021/07/27 00:38:27;;;;;;;6.10;5.45;;;;;;;17.53;100.00;101109.50;1722418;82;21009;-89
2021/07/27 00:40:54;;;;;;;9.25;6.12;;;;;;;17.50;100.00;101103.19;1716592;82;22378;-90
2021/07/27 00:43:21;;;;;;;9.60;6.15;;;;;;;17.46;100.00;101102.73;1713121;82;21036;-89
2021/07/27 00:45:47;;;;;;;11.33;6.10;;;;;;;17.42;100.00;101099.78;1712087;82;20999;-86
2021/07/27 00:48:14;;;;;;;9.88;6.83;;;;;;;17.39;100.00;101098.47;1711571;82;21083;-87
2021/07/27 00:50:40;;;;;;;9.75;6.45;;;;;;;17.37;100.00;101095.76;1730529;82;21120;-87
2021/07/27 00:53:07;;;;;;;8.43;5.90;;;;;;;17.35;100.00;101100.20;1701078;83;21508;-87
2021/07/27 00:55:34;;;;;;;7.92;5.62;;;;;;;17.33;100.00;101100.25;1720729;83;21001;-86
2021/07/27 00:58:01;;;;;;;5.75;4.70;;;;;;;17.29;100.00;101108.92;1701051;83;20946;-86
2021/07/27 01:00:28;;;;;;;8.83;6.42;;;;;;;17.24;100.00;101101.56;1721809;83;21048;-86
2021/07/27 01:02:55;;;;;;;8.63;6.60;;;;;;;17.20;100.00;101096.39;1714197;83;21046;-86
2021/07/27 01:05:22;;;;;;;9.35;6.30;;;;;;;17.17;100.00;101108.87;1712904;83;21319;-87
2021/07/27 01:07:48;;;;;;;8.95;6.47;;;;;;;17.14;100.00;101100.39;1706713;83;21041;-87
2021/07/27 01:10:16;;;;;;;12.93;7.58;;;;;;;17.10;100.00;101101.55;1726178;83;21021;-87
2021/07/27 01:12:46;;;;;;;10.80;5.55;;;;;;;17.07;100.00;101098.61;1709929;81;21036;-86
2021/07/27 01:15:14;;;;;;;8.98;5.87;;;;;;;17.04;100.00;101106.94;1690343;83;21024;-86
2021/07/27 01:17:41;;;;;;;14.33;5.95;;;;;;;17.00;100.00;101109.23;1719109;82;21021;-86
2021/07/27 01:42:14;;;;;;;9.35;6.30;;;;;;;16.68;100.00;101105.40;1692519;83;21028;-86
2021/07/27 01:44:45;;;;;;;8.40;5.50;;;;;;;16.67;100.00;101112.05;1685116;83;21100;-86
2021/07/27 01:47:18;;;;;;;7.65;5.83;;;;;;;16.65;100.00;101109.58;1711495;82;21500;-86
2021/07/27 01:49:46;;;;;;;9.65;6.62;;;;;;;16.62;100.00;101112.95;1718849;82;21124;-87
2021/07/27 01:52:16;;;;;;;9.13;6.25;;;;;;;16.53;100.00;101117.53;1742816;81;21140;-87
2021/07/27 01:54:53;;;;;;;7.75;5.47;;;;;;;16.47;100.00;101113.23;1726953;82;22080;-87
2021/07/27 01:57:21;;;;;;;9.43;5.60;;;;;;;16.44;100.00;101112.44;1710617;82;21048;-87
2021/07/27 02:00:04;;;;;;;10.85;6.20;;;;;;;16.40;100.00;101113.62;1708399;82;21555;-87
2021/07/27 02:02:32;;;;;;;5.80;4.65;;;;;;;16.38;100.00;101107.58;1734684;82;21077;-86
2021/07/27 02:04:59;;;;;;;6.95;5.25;;;;;;;16.30;100.00;101107.72;1715694;82;21081;-88
2021/07/27 02:07:25;;;;;;;8.68;6.28;;;;;;;16.26;100.00;101106.67;1715208;82;21088;-86
2021/07/27 02:09:59;;;;;;;11.12;6.78;;;;;;;16.26;100.00;101105.86;1695719;84;21069;-87
2021/07/27 02:12:23;;;;;;;8.83;6.05;;;;;;;16.26;100.00;101111.37;1701244;82;21506;-86
2021/07/27 02:15:07;;;;;;;9.53;6.90;;;;;;;16.23;100.00;101101.77;1708350;83;21557;-86
2021/07/27 02:17:31;;;;;;;8.38;6.12;;;;;;;16.21;100.00;101113.66;1707361;83;21087;-87
2021/07/27 02:20:00;;;;;;;11.38;5.80;;;;;;;16.21;100.00;101112.28;1709271;82;21039;-86
2021/07/27 02:22:27;;;;;;;11.12;6.20;;;;;;;16.20;100.00;101106.52;1693077;82;21086;-86
2021/07/27 02:24:53;;;;;;;9.85;6.55;;;;;;;16.21;100.00;101110.90;1722233;82;21426;-86
2021/07/27 02:27:19;;;;;;;9.80;6.58;;;;;;;16.19;100.00;101107.62;1722104;82;21050;-86
2021/07/27 02:29:46;;;;;;;9.10;6.28;;;;;;;16.19;100.00;101107.62;1734373;82;21032;-86
2021/07/27 02:32:12;;;;;;;12.28;7.30;;;;;;;16.20;100.00;101103.77;1711180;82;21031;-86
2021/07/27 02:34:39;;;;;;;9.60;6.15;;;;;;;16.21;100.00;101096.30;1709139;82;21027;-86
2021/07/27 02:37:05;;;;;;;9.03;6.03;;;;;;;16.20;100.00;101105.70;1713646;82;21054;-87
2021/07/27 02:39:35;;;;;;;10.23;5.87;;;;;;;16.16;100.00;101102.71;1724325;82;21490;-86
2021/07/27 02:42:01;;;;;;;8.73;6.03;;;;;;;16.13;100.00;101104.14;1712813;82;21334;-86
2021/07/27 02:44:28;;;;;;;8.60;5.97;;;;;;;16.13;100.00;101111.59;1715452;83;21069;-86
2021/07/27 02:46:54;;;;;;;9.58;5.55;;;;;;;16.14;100.00;101115.98;1729569;82;21080;-86
2021/07/27 02:49:21;;;;;;;7.12;5.35;;;;;;;16.16;100.00;101126.72;1684983;84;21041;-87
2021/07/27 02:51:49;;;;;;;7.97;5.67;;;;;;;16.16;100.00;101126.15;1713962;82;21519;-88
2021/07/27 02:54:15;;;;;;;8.63;6.72;;;;;;;16.12;100.00;101118.21;1714121;81;21116;-86
2021/07/27 02:56:42;;;;;;;8.95;6.10;;;;;;;16.11;100.00;101113.83;1724477;82;21056;-87
2021/07/27 02:59:08;;;;;;;13.43;6.60;;;;;;;16.12;100.00;101110.78;1714536;82;22048;-87
2021/07/27 03:01:34;;;;;;;8.38;6.47;;;;;;;16.18;100.00;101113.45;1719801;82;21087;-86
2021/07/27 03:04:01;;;;;;;8.65;6.08;;;;;;;16.21;100.00;101113.66;1737454;82;21514;-86
2021/07/27 03:06:28;;;;;;;8.05;5.80;;;;;;;16.21;100.00;101110.90;1729913;82;21101;-87
2021/07/27 03:11:21;;;;;;;9.28;5.92;;;;;;;16.27;100.00;101115.23;1670165;83;21095;-87
2021/07/27 03:13:48;;;;;;;9.88;6.22;;;;;;;16.28;100.00;101107.20;1735243;82;21091;-86
2021/07/27 03:16:20;;;;;;;8.88;5.85;;;;;;;16.33;100.00;101104.92;1673532;83;21074;-87
2021/07/27 03:18:49;;;;;;;10.88;6.33;;;;;;;16.38;100.00;101102.06;1724534;82;28874;-86
2021/07/27 03:21:19;;;;;;;9.55;5.90;;;;;;;16.45;100.00;101108.58;1708934;82;21069;-86
2021/07/27 03:23:46;;;;;;;11.28;6.12;;;;;;;16.53;100.00;101104.55;1717261;82;21503;-87
2021/07/27 03:26:12;;;;;;;8.33;5.75;;;;;;;16.65;100.00;101108.20;1710387;82;21056;-86
2021/07/27 03:28:42;;;;;;;11.40;7.20;;;;;;;16.73;100.00;101103.35;1709334;82;21076;-86
2021/07/27 03:31:08;;;;;;;10.93;7.00;;;;;;;16.83;100.00;101097.42;1692274;82;21068;-87
2021/07/27 03:33:34;;;;;;;11.38;8.13;;;;;;;16.90;100.00;101091.75;1739772;81;21041;-87
2021/07/27 03:36:01;;;;;;;9.75;6.45;;;;;;;17.01;100.00;101092.34;1723518;82;21136;-86
2021/07/27 03:38:28;;;;;;;11.60;7.58;;;;;;;17.12;100.00;101095.73;1708659;84;21103;-86
2021/07/27 03:41:10;;;;;;;17.05;7.80;;;;;;;17.24;100.00;101089.70;1708403;82;21072;-88
2021/07/27 03:43:38;;;;;;;11.50;8.38;;;;;;;17.36;100.00;101089.42;1709945;82;21134;-88
2021/07/27 03:46:05;;;;;;;12.53;8.53;;;;;;;17.48;100.00;101087.52;1708098;82;21067;-88
2021/07/27 03:48:32;;;;;;;10.03;7.37;;;;;;;17.58;100.00;101086.44;1709639;82;21075;-89
2021/07/27 03:51:00;;;;;;;11.65;7.33;;;;;;;17.69;100.00;101078.75;1709869;82;21188;-88
2021/07/27 03:53:27;;;;;;;12.05;7.37;;;;;;;17.79;100.00;101073.78;1680084;84;21582;-88
2021/07/27 03:55:54;;;;;;;12.70;8.03;;;;;;;17.92;100.00;101079.61;1717051;82;21045;-88
2021/07/27 03:58:21;;;;;;;11.18;8.18;;;;;;;18.07;100.00;101077.84;1713826;82;21055;-89
2021/07/27 04:00:49;;;;;;;12.05;7.30;;;;;;;18.16;100.00;101073.77;1713195;82;21111;-88
2021/07/27 04:03:17;;;;;;;10.38;7.97;;;;;;;18.31;100.00;101083.05;1711359;82;21053;-89
2021/07/27 04:05:43;;;;;;;11.73;7.78;;;;;;;18.45;100.00;101078.26;1715015;82;22323;-88
2021/07/27 04:08:11;;;;;;;10.50;7.35;;;;;;;18.58;100.00;101077.10;1727576;82;21089;-89
2021/07/27 04:10:37;;;;;;;12.28;8.35;;;;;;;18.72;100.00;101082.52;1714137;82;21072;-89
2021/07/27 04:13:04;;;;;;;13.80;7.65;;;;;;;18.82;100.00;101084.48;1717514;82;21087;-90
2021/07/27 04:15:40;;;;;;;12.25;8.58;;;;;;;18.95;100.00;101079.97;1713676;82;21025;-89
2021/07/27 04:18:08;;;;;;;12.15;8.28;;;;;;;19.08;100.00;101083.17;1723285;82;21061;-89
2021/07/27 04:20:35;;;;;;;11.60;7.90;;;;;;;19.24;100.00;101083.56;1719571;82;21058;-89
2021/07/27 04:23:02;;;;;;;12.15;8.25;;;;;;;19.39;100.00;101087.83;1708064;84;21543;-89
2021/07/27 04:25:29;;;;;;;11.93;9.13;;;;;;;19.54;100.00;101087.92;1708075;82;21396;-90
2021/07/27 04:27:55;;;;;;;13.88;8.08;;;;;;;19.73;100.00;101085.69;1693410;82;21148;-88
2021/07/27 04:30:22;;;;;;;15.43;9.30;;;;;;;19.92;100.00;101085.92;1712891;82;21507;-89
2021/07/27 04:32:49;;;;;;;10.23;7.40;;;;;;;20.11;100.00;101080.03;1708053;82;21490;-89
2021/07/27 04:35:16;;;;;;;11.93;7.22;;;;;;;20.31;100.00;101082.69;1711135;82;21083;-90
2021/07/27 04:37:42;;;;;;;12.65;7.72;;;;;;;20.52;100.00;101083.59;1730832;82;21526;-88
2021/07/27 04:40:09;;;;;;;13.40;8.25;;;;;;;20.73;100.00;101080.14;1734547;82;21076;-88
2021/07/27 04:42:36;;;;;;;12.85;8.08;;;;;;;20.91;100.00;101085.04;1717318;82;21017;-88
2021/07/27 04:45:04;;;;;;;10.38;7.37;;;;;;;21.09;100.00;101074.06;1718235;82;21064;-88
2021/07/27 04:47:30;;;;;;;10.58;7.28;;;;;;;21.29;100.00;101075.28;1735023;82;21107;-88
2021/07/27 04:49:58;;;;;;;16.40;8.58;;;;;;;21.47;100.00;101075.41;1716087;82;21003;-88
2021/07/27 04:52:25;;;;;;;14.55;9.45;;;;;;;21.70;100.00;101072.30;1716168;82;21075;-89
2021/07/27 04:54:55;;;;;;;14.90;8.83;;;;;;;21.90;100.00;101074.83;1731710;81;21694;-89
2021/07/27 04:57:23;;;;;;;9.78;7.78;;;;;;;22.14;100.00;101074.11;1736293;81;22173;-89
2021/07/27 04:59:50;;;;;;;13.93;8.18;;;;;;;22.38;100.00;101083.16;1724925;82;21111;-89
2021/07/27 05:02:16;;;;;;;13.50;7.65;;;;;;;22.62;100.00;101076.80;1724638;81;21041;-89
2021/07/27 05:04:45;;;;;;;9.88;8.03;;;;;;;22.86;100.00;101076.59;1739166;82;21124;-89
2021/07/27 05:07:11;;;;;;;12.23;7.50;;;;;;;23.09;100.00;101072.78;1716441;83;21365;-89
2021/07/27 05:09:38;;;;;;;8.80;6.67;;;;;;;23.30;100.00;101065.10;1724994;81;21088;-88
2021/07/27 05:12:05;;;;;;;10.85;6.75;;;;;;;23.49;100.00;101060.87;1717377;82;21064;-89
2021/07/27 05:14:32;;;;;;;9.03;5.85;;;;;;;23.69;100.00;101064.64;1734359;81;21048;-89
2021/07/27 05:17:09;;;;;;;8.55;6.10;;;;;;;23.83;100.00;101060.91;1749314;81;21450;-89
2021/07/27 05:19:52;;;;;;;6.90;4.58;;;;;;;23.98;100.00;101064.33;1741115;81;21312;-90
2021/07/27 05:22:20;;;;;;;7.17;4.63;;;;;;;24.14;100.00;101064.98;1734467;82;21312;-90
2021/07/27 05:24:47;;;;;;;7.97;5.15;;;;;;;24.29;100.00;101065.59;1753834;81;21633;-90
2021/07/27 05:27:14;;;;;;;8.65;5.45;;;;;;;24.42;100.00;101055.95;1741235;82;21406;-88
2021/07/27 05:29:40;;;;;;;6.22;4.60;;;;;;;24.57;100.00;101062.75;1755686;81;21068;-90
2021/07/27 05:32:07;;;;;;;7.30;4.58;;;;;;;24.71;100.00;101072.09;1727138;83;21016;-89
2021/07/27 05:34:33;;;;;;;7.35;4.37;;;;;;;24.81;100.00;101071.55;1741627;82;21068;-88
2021/07/27 05:37:00;;;;;;;7.28;4.75;;;;;;;24.94;100.00;101076.44;1753901;81;21024;-89
2021/07/27 05:39:27;;;;;;;8.30;5.10;;;;;;;25.07;100.00;101064.00;1741323;82;21127;-90
2021/07/27 05:41:53;;;;;;;8.18;4.97;;;;;;;25.23;100.00;101068.18;1753822;81;21457;-89
2021/07/27 05:44:24;;;;;;;6.40;4.28;;;;;;;25.36;100.00;101063.86;1741499;82;21124;-89
2021/07/27 05:46:49;;;;;;;6.65;4.92;;;;;;;25.47;100.00;101073.28;1753897;81;21076;-89
2021/07/27 05:49:15;;;;;;;7.00;4.97;;;;;;;25.62;100.00;101070.20;1741379;82;21119;-90
2021/07/27 05:51:42;;;;;;;10.20;5.33;;;;;;;25.76;100.00;101077.52;1753762;81;21044;-90
2021/07/27 05:54:09;;;;;;;7.97;4.85;;;;;;;25.89;100.00;101081.00;1722140;82;21142;-91
2021/07/27 05:56:35;;;;;;;5.80;4.28;;;;;;;26.02;99.65;101071.88;1737563;82;21547;-90
2021/07/27 05:59:02;;;;;;;5.87;4.10;;;;;;;26.12;97.58;101074.88;1737811;82;21088;-89
2021/07/27 06:01:29;;;;;;;7.70;4.30;;;;;;;26.27;96.15;101084.97;1737753;82;21059;-89
2021/07/27 06:03:56;;;;;;;7.05;4.42;;;;;;;26.34;94.92;101073.89;1737753;82;21480;-90
2021/07/27 06:06:22;;;;;;;7.28;4.55;;;;;;;26.41;93.19;101077.40;1737766;82;21559;-89
2021/07/27 06:08:49;;;;;;;7.12;3.83;;;;;;;26.48;93.58;101071.33;1708335;82;21096;-90
2021/07/27 06:11:16;;;;;;;7.33;4.33;;;;;;;26.62;92.66;101066.61;1737727;82;21045;-89
2021/07/27 06:13:42;;;;;;;6.17;4.28;;;;;;;26.80;90.76;101068.30;1737831;82;21080;-89
2021/07/27 06:16:09;;;;;;;5.55;4.33;;;;;;;26.90;86.85;101069.06;1737665;82;21076;-88
2021/07/27 06:18:35;;;;;;;6.97;3.30;;;;;;;26.97;86.24;101073.39;1737686;82;21127;-89
2021/07/27 06:21:04;;;;;;;5.62;4.17;;;;;;;27.06;85.80;101075.14;1737637;82;21140;-89
2021/07/27 06:23:30;;;;;;;5.37;3.60;;;;;;;27.15;84.24;101078.46;1707881;82;20997;-90
2021/07/27 06:25:57;;;;;;;7.08;4.10;;;;;;;27.20;84.30;101079.56;1738026;82;21052;-89
2021/07/27 06:28:23;;;;;;;5.87;4.12;;;;;;;27.28;83.94;101079.11;1737882;82;21104;-90
2021/07/27 06:30:50;;;;;;;5.97;4.22;;;;;;;27.37;84.39;101074.80;1737683;82;21127;-89
2021/07/27 06:33:16;;;;;;;5.92;4.15;;;;;;;27.53;84.53;101075.24;1737811;82;21041;-89
2021/07/27 06:35:43;;;;;;;5.08;3.83;;;;;;;27.69;84.16;101070.83;1737868;82;20989;-88
2021/07/27 06:38:09;;;;;;;5.08;3.77;;;;;;;27.81;83.62;101072.78;1737807;82;21052;-90
2021/07/27 06:40:37;;;;;;;5.53;3.77;;;;;;;27.94;83.83;101076.77;1737754;82;21124;-89
2021/07/27 06:43:03;;;;;;;6.45;3.87;;;;;;;28.00;83.16;101078.06;1737934;82;21029;-90
2021/07/27 06:45:30;;;;;;;4.22;3.47;;;;;;;28.05;82.63;101077.72;1751632;81;21625;-90
2021/07/27 06:47:56;;;;;;;6.42;3.75;;;;;;;28.10;81.95;101080.19;1721187;83;21040;-90
2021/07/27 06:50:22;;;;;;;4.70;3.55;;;;;;;28.18;81.18;101082.47;1738025;82;21603;-89
2021/07/27 06:52:49;;;;;;;6.50;4.28;;;;;;;28.19;80.10;101077.05;1737814;82;21100;-89
2021/07/27 06:55:19;;;;;;;6.37;3.83;;;;;;;28.17;80.42;101082.27;1733103;81;21049;-90
2021/07/27 06:57:44;;;;;;;4.75;3.55;;;;;;;28.22;81.12;101073.50;1732251;82;21060;-89
2021/07/27 07:00:11;;;;;;;4.87;3.33;;;;;;;28.29;79.81;101080.00;1732362;82;21033;-89
2021/07/27 07:02:38;;;;;;;3.02;2.72;;;;;;;28.38;79.92;101081.07;1732334;82;20946;-90
2021/07/27 07:05:05;;;;;;;4.60;3.05;;;;;;;28.42;79.59;101082.53;1732407;82;21061;-90
2021/07/27 07:07:32;;;;;;;4.97;3.60;;;;;;;28.44;78.85;101080.14;1732419;82;21061;-89
2021/07/27 07:09:58;;;;;;;5.97;3.50;;;;;;;28.42;80.18;101088.16;1745766;82;21029;-89
2021/07/27 07:12:26;;;;;;;4.17;3.40;;;;;;;28.50;80.48;101082.83;1737623;81;21072;-90
2021/07/27 07:14:55;;;;;;;5.15;3.45;;;;;;;28.62;79.30;101088.77;1708386;82;21013;-89
2021/07/27 07:17:24;;;;;;;4.83;3.22;;;;;;;28.67;78.63;101087.01;1737581;82;21022;-92
2021/07/27 07:19:51;;;;;;;5.45;3.00;;;;;;;28.69;78.97;101088.84;1737371;82;21056;-90
2021/07/27 07:22:18;;;;;;;3.33;2.90;;;;;;;28.75;78.46;101095.70;1737785;82;21025;-90
2021/07/27 07:24:46;;;;;;;4.55;3.08;;;;;;;28.75;77.48;101094.91;1738092;82;21088;-89
2021/07/27 07:27:12;;;;;;;5.97;3.33;;;;;;;28.73;79.29;101093.88;1711781;82;21022;-89
2021/07/27 07:29:41;;;;;;;5.47;3.45;;;;;;;28.83;78.80;101093.76;1738415;82;21046;-89
2021/07/27 07:32:07;;;;;;;4.60;3.45;;;;;;;28.87;79.35;101089.78;1738073;82;21052;-89
2021/07/27 07:34:33;;;;;;;4.85;2.98;;;;;;;28.87;79.66;101095.41;1737956;82;21067;-90
2021/07/27 07:37:03;;;;;;;5.47;3.72;;;;;;;28.95;79.61;101098.48;1737635;82;21036;-89
2021/07/27 07:39:29;;;;;;;4.55;3.25;;;;;;;29.03;79.51;101099.37;1738133;82;21068;-90
2021/07/27 07:41:56;;;;;;;6.08;3.47;;;;;;;29.03;78.63;101093.73;1737751;82;21064;-88
2021/07/27 07:44:22;;;;;;;6.10;4.08;;;;;;;29.10;78.73;101094.40;1737723;82;21113;-90
2021/07/27 07:46:49;;;;;;;6.00;3.90;;;;;;;29.24;78.75;101099.33;1737711;82;21064;-90
2021/07/27 07:49:16;;;;;;;5.45;3.83;;;;;;;29.39;77.96;101095.40;1737703;82;21516;-91
2021/07/27 07:51:47;;;;;;;6.05;4.12;;;;;;;29.55;77.65;101102.95;1737717;82;21048;-89
2021/07/27 07:54:17;;;;;;;7.37;4.10;;;;;;;29.64;76.66;101096.14;1738611;81;21447;-90
2021/07/27 07:56:44;;;;;;;5.35;4.00;;;;;;;29.61;77.32;101099.75;1737804;82;21520;-90
2021/07/27 07:59:11;;;;;;;4.90;3.58;;;;;;;29.66;77.99;101098.00;1738024;82;21044;-89
2021/07/27 08:01:38;;;;;;;4.92;3.30;;;;;;;29.85;77.14;101092.05;1737471;82;22275;-89
2021/07/27 08:04:05;;;;;;;4.08;3.42;;;;;;;30.06;77.33;101093.33;1737745;82;21096;-89
2021/07/27 08:06:31;;;;;;;6.53;4.03;;;;;;;30.23;74.65;101094.77;1737682;82;21061;-88
2021/07/27 08:09:00;;;;;;;5.85;3.90;;;;;;;30.19;75.49;101089.75;1737986;82;21080;-90
2021/07/27 08:11:26;;;;;;;6.97;3.85;;;;;;;30.26;73.87;101090.38;1737556;82;21483;-89
2021/07/27 08:13:56;;;;;;;5.00;3.83;;;;;;;30.30;72.54;101098.25;1737581;82;21495;-90
2021/07/27 08:16:25;;;;;;;6.12;4.35;;;;;;;30.35;72.53;101092.22;1737677;82;21064;-88
2021/07/27 08:18:53;;;;;;;5.60;3.83;;;;;;;30.49;71.89;101096.25;1708858;82;21064;-89
2021/07/27 08:21:24;;;;;;;6.20;3.60;;;;;;;30.62;71.28;101089.04;1745389;81;21076;-91
2021/07/27 08:23:51;;;;;;;4.95;4.20;;;;;;;30.74;69.83;101088.64;1737884;82;21291;-89
2021/07/27 08:26:18;;;;;;;5.75;4.45;;;;;;;30.69;68.59;101088.22;1737458;82;21119;-89
2021/07/27 08:28:48;;;;;;;5.75;4.05;;;;;;;30.56;69.98;101096.27;1745436;81;21746;-89
2021/07/27 08:31:16;;;;;;;7.62;4.33;;;;;;;30.50;69.98;101089.43;1737598;82;21132;-90
2021/07/27 08:33:42;;;;;;;5.85;4.10;;;;;;;30.46;69.81;101086.59;1738324;82;21459;-90
2021/07/27 08:36:09;;;;;;;7.55;4.60;;;;;;;30.43;69.03;101091.02;1708549;82;21112;-89
2021/07/27 08:38:36;;;;;;;6.95;4.62;;;;;;;30.27;70.84;101090.60;1737589;82;21068;-89
2021/07/27 08:41:06;;;;;;;6.87;4.05;;;;;;;30.20;71.82;101093.37;1737688;82;21540;-89
2021/07/27 08:43:33;;;;;;;7.85;4.67;;;;;;;30.18;73.50;101085.91;1709103;82;21029;-90
2021/07/27 08:46:00;;;;;;;6.78;4.03;;;;;;;30.21;72.29;101080.87;1738274;82;21187;-90
2021/07/27 08:48:27;;;;;;;7.08;4.50;;;;;;;30.21;71.55;101076.65;1738202;82;21067;-90
2021/07/27 08:50:53;;;;;;;6.00;4.05;;;;;;;30.15;72.62;101084.70;1737631;82;21623;-89
2021/07/27 08:53:20;;;;;;;7.30;4.00;;;;;;;30.15;73.67;101079.67;1737542;82;21035;-90
2021/07/27 08:55:47;;;;;;;6.50;4.10;;;;;;;30.21;73.22;101078.06;1737628;81;21045;-90
2021/07/27 08:58:13;;;;;;;9.83;3.72;;;;;;;30.25;70.52;101079.52;1737973;82;21571;-90
2021/07/27 09:00:40;;;;;;;7.35;4.03;;;;;;;30.20;70.86;101079.28;1737945;82;21072;-89
2021/07/27 09:03:17;;;;;;;5.75;3.70;;;;;;;30.23;70.58;101082.70;1737647;82;21056;-89
2021/07/27 09:05:43;;;;;;;5.17;3.85;;;;;;;30.26;70.98;101077.70;1745702;81;21642;-89
2021/07/27 09:08:10;;;;;;;5.75;3.47;;;;;;;30.29;71.07;101079.73;1715734;83;21080;-90
2021/07/27 09:10:38;;;;;;;5.40;3.67;;;;;;;30.31;70.02;101080.13;1737942;82;21061;-90
2021/07/27 09:13:13;;;;;;;4.80;3.45;;;;;;;30.32;69.91;101076.72;1737552;82;21064;-91
2021/07/27 09:15:43;;;;;;;4.85;3.60;;;;;;;30.33;69.60;101074.89;1745225;81;21013;-89
2021/07/27 09:18:15;;;;;;;5.67;3.62;;;;;;;30.33;69.42;101074.89;1708067;82;21083;-89
2021/07/27 09:20:49;;;;;;;;;;;;;;;30.32;69.67;101073.30;1743502;82;20965;-90
2021/07/27 09:23:22;;;;;;;5.87;3.27;;;;;;;30.34;69.35;101070.89;1740735;82;20485;-89
2021/07/27 09:25:57;;;;;;;5.30;3.58;;;;;;;30.37;69.75;101071.48;1738444;81;21491;-90
2021/07/27 09:28:24;;;;;;;4.28;3.30;;;;;;;30.43;69.30;101065.64;1737611;82;21056;-90
2021/07/27 09:30:59;;;;;;;7.35;3.77;;;;;;;30.45;70.38;101063.84;1737612;82;21053;-90
2021/07/27 09:33:34;;;;;;;4.30;3.27;;;;;;;30.50;70.09;101059.82;1707799;82;21092;-90
2021/07/27 09:36:01;;;;;;;5.50;3.12;;;;;;;30.55;68.60;101054.58;1737895;82;21160;-89
2021/07/27 09:38:31;;;;;;;4.42;3.17;;;;;;;30.67;68.88;101059.02;1737896;82;21045;-90
2021/07/27 09:41:00;;;;;;;5.08;3.62;;;;;;;30.72;67.57;101062.05;1737481;82;21104;-90
2021/07/27 09:43:28;;;;;;;5.37;3.35;;;;;;;30.53;66.67;101056.19;1737745;82;21444;-89
2021/07/27 09:46:00;;;;;;;6.22;3.08;;;;;;;30.35;67.54;101048.52;1708027;82;22124;-89
2021/07/27 09:48:26;;;;;;;3.80;3.02;;;;;;;30.22;67.92;101055.73;1737751;82;21044;-90
2021/07/27 09:50:55;;;;;;;3.45;2.77;;;;;;;30.21;67.26;101057.72;1737597;82;39798;-90
2021/07/27 09:53:22;;;;;;;4.40;2.90;;;;;;;30.19;65.45;101064.39;1708237;82;21096;-89
2021/07/27 09:55:50;;;;;;;4.22;2.67;;;;;;;30.12;65.42;101063.53;1737580;81;21052;-89
2021/07/27 09:58:17;;;;;;;5.97;2.70;;;;;;;30.13;65.83;101058.13;1737562;82;21370;-90
2021/07/27 10:00:54;;;;;;;3.70;2.60;;;;;;;30.20;65.11;101053.30;1745681;81;21063;-89
2021/07/27 10:03:26;;;;;;;4.42;2.67;;;;;;;30.27;64.37;101057.36;1715630;83;21083;-90
2021/07/27 10:05:57;;;;;;;3.75;3.22;;;;;;;30.36;64.44;101043.08;1737635;82;21091;-91
2021/07/27 10:08:29;;;;;;;3.87;2.70;;;;;;;30.45;63.57;101044.11;1737577;82;21056;-90
2021/07/27 10:11:12;;;;;;;;;;;;;;;30.46;62.02;101042.09;1740419;82;21040;-90
2021/07/27 10:13:45;;;;;;;4.50;2.47;;;;;;;30.49;63.84;101046.91;1737705;82;20179;-89
2021/07/27 10:16:22;;;;;;;2.33;1.95;;;;;;;30.64;61.83;101041.50;1738354;82;21082;-89
2021/07/27 10:18:49;;;;;;;3.22;2.77;;;;;;;30.77;59.36;101042.70;1737102;82;21076;-88
2021/07/27 10:21:25;;;;;;;3.47;2.20;;;;;;;30.90;60.63;101035.26;1737815;82;21083;-89
2021/07/27 10:23:54;;;;;;;4.53;2.45;;;;;;;31.02;59.13;101032.02;1737928;82;21068;-91
2021/07/27 10:26:27;;;;;;;3.52;2.12;;;;;;;31.09;56.72;101036.23;1737898;82;21069;-90
2021/07/27 10:42:34;;;;;;;2.62;1.55;;;;;;;31.13;53.41;101024.92;1714184;81;21046;-93
2021/07/27 10:46:32;;;;;;;2.90;1.92;;;;;;;30.77;52.15;101033.43;1727952;83;21100;-88
2021/07/27 11:06:15;;;;;;;1.62;1.27;;;;;;;30.87;50.76;101003.63;1693435;84;21013;-91
2021/07/27 11:08:42;;;;;;;1.90;1.15;;;;;;;31.01;48.61;100999.34;1681756;84;21595;-90
2021/07/27 11:11:10;;;;;;;1.20;1.10;;;;;;;30.93;47.86;100994.94;1683024;84;21068;-89
2021/07/27 11:13:37;;;;;;;2.42;1.35;;;;;;;30.75;48.21;100997.16;1734118;82;21075;-90
2021/07/27 11:16:04;;;;;;;3.55;1.50;;;;;;;30.62;50.13;100995.97;1737369;82;21171;-90
2021/07/27 11:18:31;;;;;;;2.50;1.42;;;;;;;30.65;51.18;100992.34;1736372;82;21524;-90
2021/07/27 11:20:58;;;;;;;1.95;1.55;;;;;;;30.82;50.73;100988.72;1768857;81;21020;-89
2021/07/27 11:23:25;;;;;;;1.62;1.15;;;;;;;31.03;49.82;100989.87;1741138;81;21094;-89
2021/07/27 11:25:53;;;;;;;1.55;0.88;;;;;;;31.32;49.63;100986.97;1767693;81;21037;-89
2021/07/27 11:34:30;;;;;;;1.15;1.05;;;;;;;31.94;45.88;100973.58;1830921;77;22373;-89
2021/07/27 11:36:58;;;;;;;1.67;1.25;;;;;;;32.11;46.83;100983.95;1784298;80;21030;-88
2021/07/27 11:39:25;;;;;;;1.45;1.10;;;;;;;32.40;44.13;100980.92;1780609;80;21060;-89
2021/07/27 11:42:01;;;;;;;1.87;1.25;;;;;;;32.46;41.35;100979.84;1780508;80;21497;-91
2021/07/27 11:44:28;;;;;;;2.25;1.22;;;;;;;32.18;40.18;100980.89;1727853;83;21421;-90
2021/07/27 11:46:54;;;;;;;2.12;0.88;;;;;;;31.70;41.59;100977.55;1727957;83;21069;-89
2021/07/27 11:49:21;;;;;;;1.05;0.98;;;;;;;31.51;43.39;100975.84;1727779;83;21598;-89
2021/07/27 11:51:48;;;;;;;2.12;1.10;;;;;;;31.38;42.03;100979.09;1728115;83;21026;-90
2021/07/27 11:54:25;;;;;;;1.35;1.00;;;;;;;31.28;42.44;100979.91;1713309;83;21619;-89
2021/07/27 11:56:51;;;;;;;1.32;1.15;;;;;;;31.16;43.55;100973.30;1698802;83;22138;-89
2021/07/27 11:59:26;;;;;;;1.65;0.95;;;;;;;31.18;44.31;100968.89;1745940;81;21040;-90
2021/07/27 12:01:53;;;;;;;1.52;1.37;;;;;;;31.36;44.45;100971.63;1738542;82;21032;-89
2021/07/27 12:04:19;;;;;;;1.20;1.10;;;;;;;31.51;42.55;100973.81;1738396;82;21113;-89
2021/07/27 12:06:50;;;;;;;1.30;1.00;;;;;;;31.50;42.53;100967.95;1738231;82;21299;-90
2021/07/27 12:09:19;;;;;;;1.32;1.17;;;;;;;31.31;41.98;100969.23;1738463;82;21064;-89
2021/07/27 12:11:45;;;;;;;3.20;1.52;;;;;;;30.93;42.84;100962.49;1738242;82;21108;-91
2021/07/27 12:14:12;;;;;;;1.72;1.20;;;;;;;30.69;44.22;100956.48;1738495;82;21071;-89
2021/07/27 12:16:38;;;;;;;2.85;1.35;;;;;;;30.58;44.45;100952.86;1738295;82;21055;-89
2021/07/27 12:19:05;;;;;;;1.80;1.35;;;;;;;30.40;44.26;100955.09;1745992;81;21088;-90
2021/07/27 12:21:32;;;;;;;1.55;1.20;;;;;;;30.20;44.53;100955.27;1738406;82;21065;-89
2021/07/27 12:23:59;;;;;;;1.77;1.42;;;;;;;30.11;46.06;100949.22;1738394;82;21299;-89
2021/07/27 12:26:25;;;;;;;3.55;1.30;;;;;;;30.18;45.17;100942.19;1738321;82;21483;-90